createdAt,value
2022-08-07T00:01:44.121Z,68.55
2022-08-07T00:04:05.804Z,68.39
2022-08-07T00:06:33.792Z,68.69
2022-08-07T00:09:16.235Z,68.70
2022-08-07T00:11:53.862Z,68.82
2022-08-07T00:14:21.751Z,68.73
2022-08-07T00:16:52.125Z,68.68
2022-08-07T00:19:21.357Z,69.04
2022-08-07T00:21:55.315Z,68.98
2022-08-07T00:24:22.078Z,69.19
2022-08-07T00:27:06.771Z,69.23
2022-08-07T00:29:37.182Z,69.31
2022-08-07T00:32:05.874Z,69.29
2022-08-07T00:34:33.232Z,69.52
2022-08-07T00:37:02.214Z,69.61
2022-08-07T00:39:34.373Z,69.61
2022-08-07T00:42:05.439Z,69.57
2022-08-07T00:44:34.186Z,69.53
2022-08-07T00:47:06.589Z,69.79
2022-08-07T00:50:19.725Z,69.86
2022-08-07T00:52:37.829Z,69.90
2022-08-07T00:55:10.654Z,69.82
2022-08-07T00:57:37.103Z,69.93
2022-08-07T01:00:05.472Z,70.07
2022-08-07T01:02:32.144Z,70.16
2022-08-07T01:04:59.411Z,70.06
2022-08-07T01:07:28.371Z,70.15
2022-08-07T01:10:05.811Z,70.26
2022-08-07T01:12:34.854Z,70.45
2022-08-07T01:15:04.085Z,70.44
2022-08-07T01:17:32.114Z,70.27
2022-08-07T01:20:06.728Z,70.25
2022-08-07T01:22:38.232Z,70.39
2022-08-07T01:25:53.945Z,70.45
2022-08-07T01:28:02.897Z,70.31
2022-08-07T01:30:31.681Z,70.19
2022-08-07T01:32:58.689Z,70.43
2022-08-07T01:35:52.610Z,70.28
2022-08-07T01:38:25.017Z,70.42
2022-08-07T01:40:58.376Z,70.32
2022-08-07T01:43:26.972Z,70.43
2022-08-07T01:46:02.369Z,70.43
2022-08-07T01:48:31.811Z,70.32
2022-08-07T01:51:24.273Z,70.24
2022-08-07T01:54:09.534Z,70.46
2022-08-07T01:56:59.816Z,70.44
2022-08-07T01:59:31.582Z,70.50
2022-08-07T02:02:06.342Z,70.44
2022-08-07T02:04:36.582Z,70.33
2022-08-07T02:07:06.280Z,70.43
2022-08-07T02:09:51.604Z,70.25
2022-08-07T02:12:29.036Z,70.61
2022-08-07T02:14:58.070Z,70.48
2022-08-07T02:17:35.503Z,70.35
2022-08-07T02:20:09.690Z,70.26
2022-08-07T02:22:45.446Z,70.26
2022-08-07T02:25:17.691Z,70.24
2022-08-07T02:27:56.033Z,70.32
2022-08-07T02:30:23.678Z,70.32
2022-08-07T02:33:00.521Z,70.29
2022-08-07T02:36:28.481Z,70.32
2022-08-07T02:38:31.784Z,70.33
2022-08-07T02:41:03.694Z,70.22
2022-08-07T02:43:34.722Z,70.42
2022-08-07T02:46:03.830Z,70.32
2022-08-07T02:48:32.772Z,70.54
2022-08-07T02:51:29.060Z,70.59
2022-08-07T02:53:56.487Z,70.53
2022-08-07T02:56:29.611Z,70.68
2022-08-07T02:59:01.584Z,70.59
2022-08-07T03:01:36.535Z,70.90
2022-08-07T03:04:13.990Z,70.69
2022-08-07T03:06:44.850Z,70.90
2022-08-07T03:09:13.294Z,70.71
2022-08-07T03:11:52.713Z,70.66
2022-08-07T03:14:30.100Z,70.73
2022-08-07T03:16:57.554Z,70.82
2022-08-07T03:19:24.680Z,70.75
2022-08-07T03:21:58.729Z,71.00
2022-08-07T03:24:28.023Z,71.13
2022-08-07T03:27:03.061Z,71.10
2022-08-07T03:29:49.547Z,71.20
2022-08-07T03:32:24.079Z,71.12
2022-08-07T03:35:01.018Z,71.32
2022-08-07T03:37:46.264Z,70.95
2022-08-07T03:40:23.564Z,70.87
2022-08-07T03:42:55.234Z,70.90
2022-08-07T03:45:30.623Z,70.94
2022-08-07T03:48:09.919Z,70.98
2022-08-07T03:50:38.201Z,71.05
2022-08-07T03:53:06.855Z,71.07
2022-08-07T03:55:53.420Z,70.87
2022-08-07T03:58:33.954Z,71.03
2022-08-07T04:01:15.013Z,71.01
2022-08-07T04:03:53.330Z,70.90
2022-08-07T04:06:37.830Z,70.80
2022-08-07T04:09:15.390Z,70.84
2022-08-07T04:12:24.667Z,70.97
2022-08-07T04:14:38.519Z,70.94
2022-08-07T04:17:20.051Z,70.97
2022-08-07T04:19:52.795Z,71.02
2022-08-07T04:22:27.560Z,70.97
2022-08-07T04:25:01.401Z,70.99
2022-08-07T04:27:35.617Z,71.01
2022-08-07T04:30:11.699Z,70.93
2022-08-07T04:32:58.937Z,71.01
2022-08-07T04:35:35.438Z,71.03
2022-08-07T04:38:11.499Z,70.96
2022-08-07T04:40:52.878Z,71.16
2022-08-07T04:44:10.648Z,71.22
2022-08-07T04:46:34.824Z,71.01
2022-08-07T04:49:24.212Z,71.12
2022-08-07T04:52:07.113Z,71.03
2022-08-07T04:54:42.028Z,71.21
2022-08-07T04:58:14.294Z,71.24
2022-08-07T05:00:31.795Z,71.10
2022-08-07T05:03:16.702Z,70.98
2022-08-07T05:06:16.315Z,71.13
2022-08-07T05:09:04.036Z,71.08
2022-08-07T05:11:57.603Z,71.29
2022-08-07T05:14:54.651Z,71.13
2022-08-07T05:17:51.467Z,71.22
2022-08-07T05:20:17.447Z,71.08
2022-08-07T05:22:48.983Z,71.01
2022-08-07T05:25:25.602Z,71.04
2022-08-07T05:28:20.192Z,71.13
2022-08-07T05:30:48.865Z,71.12
2022-08-07T05:33:18.011Z,71.19
2022-08-07T05:35:50.008Z,71.13
2022-08-07T05:39:00.770Z,71.05
2022-08-07T05:41:05.492Z,70.96
2022-08-07T05:44:07.945Z,70.93
2022-08-07T05:46:30.419Z,70.68
2022-08-07T05:48:59.695Z,71.27
2022-08-07T05:51:31.473Z,70.97
2022-08-07T05:54:12.184Z,70.77
2022-08-07T05:56:47.296Z,71.35
2022-08-07T05:59:19.088Z,71.29
2022-08-07T06:01:51.097Z,70.84
2022-08-07T06:04:20.733Z,71.35
2022-08-07T06:06:56.658Z,70.90
2022-08-07T06:10:03.209Z,70.78
2022-08-07T06:12:16.809Z,70.74
2022-08-07T06:14:49.525Z,70.69
2022-08-07T06:17:19.030Z,70.75
2022-08-07T06:20:03.370Z,70.82
2022-08-07T06:22:38.876Z,70.92
2022-08-07T06:25:24.425Z,71.09
2022-08-07T06:28:04.994Z,70.68
2022-08-07T06:30:37.963Z,70.60
2022-08-07T06:33:16.053Z,70.49
2022-08-07T06:36:12.103Z,70.45
2022-08-07T06:38:37.015Z,70.51
2022-08-07T06:41:12.953Z,70.48
2022-08-07T06:43:46.394Z,70.46
2022-08-07T06:46:20.385Z,70.32
2022-08-07T06:49:00.020Z,70.49
2022-08-07T06:51:34.128Z,70.65
2022-08-07T06:55:28.647Z,70.85
2022-08-07T06:56:58.354Z,70.97
2022-08-07T07:00:13.717Z,71.09
2022-08-07T07:02:48.816Z,70.92
2022-08-07T07:05:12.745Z,70.77
2022-08-07T07:07:58.498Z,70.77
2022-08-07T07:10:32.979Z,70.74
2022-08-07T07:13:05.701Z,70.84
2022-08-07T07:15:43.900Z,71.03
2022-08-07T07:18:47.848Z,71.51
2022-08-07T07:22:04.066Z,70.94
2022-08-07T07:24:16.768Z,71.49
2022-08-07T07:26:49.633Z,71.26
2022-08-07T07:29:39.079Z,70.96
2022-08-07T07:32:11.565Z,71.05
2022-08-07T07:34:43.389Z,71.45
2022-08-07T07:37:21.429Z,71.64
2022-08-07T07:40:03.468Z,71.62
2022-08-07T07:42:38.000Z,71.33
2022-08-07T07:45:06.482Z,71.08
2022-08-07T07:47:51.751Z,70.86
2022-08-07T07:50:34.146Z,71.00
2022-08-07T07:53:20.561Z,71.02
2022-08-07T07:55:54.627Z,70.69
2022-08-07T07:58:29.368Z,70.61
2022-08-07T08:00:58.312Z,70.55
2022-08-07T08:04:10.705Z,70.45
2022-08-07T08:06:13.244Z,70.45
2022-08-07T08:08:42.403Z,70.34
2022-08-07T08:11:16.326Z,70.77
2022-08-07T08:13:56.690Z,71.03
2022-08-07T08:16:50.288Z,70.83
2022-08-07T08:20:18.223Z,70.73
2022-08-07T08:22:32.894Z,70.70
2022-08-07T08:25:27.022Z,71.04
2022-08-07T08:28:11.979Z,71.17
2022-08-07T08:30:51.054Z,71.40
2022-08-07T08:33:24.571Z,71.85
2022-08-07T08:35:57.250Z,71.77
2022-08-07T08:38:29.983Z,71.60
2022-08-07T08:41:13.120Z,71.63
2022-08-07T08:43:58.908Z,71.77
2022-08-07T08:46:36.854Z,71.69
2022-08-07T08:49:32.987Z,71.51
2022-08-07T08:52:21.976Z,71.90
2022-08-07T08:55:01.234Z,71.80
2022-08-07T08:57:39.699Z,71.67
2022-08-07T09:00:08.616Z,71.80
2022-08-07T09:02:41.902Z,71.96
2022-08-07T09:05:36.931Z,71.94
2022-08-07T09:08:24.290Z,71.96
2022-08-07T09:11:10.206Z,71.96
2022-08-07T09:14:10.581Z,71.84
2022-08-07T09:16:46.531Z,71.80
2022-08-07T09:19:53.388Z,71.91
2022-08-07T09:24:33.578Z,71.73
2022-08-07T09:25:33.030Z,71.74
2022-08-07T09:28:06.071Z,71.58
2022-08-07T09:31:07.353Z,71.57
2022-08-07T09:33:57.906Z,70.98
2022-08-07T09:36:43.067Z,71.03
2022-08-07T09:39:53.103Z,70.92
2022-08-07T09:42:50.484Z,70.89
2022-08-07T09:47:27.625Z,70.76
2022-08-07T09:48:55.849Z,70.88
2022-08-07T09:52:15.997Z,70.24
2022-08-07T09:54:22.467Z,70.34
2022-08-07T09:57:25.437Z,70.40
2022-08-07T10:00:14.759Z,70.25
2022-08-07T10:03:08.350Z,69.67
2022-08-07T10:06:06.474Z,69.52
2022-08-07T10:09:15.173Z,69.22
2022-08-07T10:12:21.773Z,69.36
2022-08-07T10:15:23.026Z,69.38
2022-08-07T10:18:26.511Z,69.33
2022-08-07T10:22:13.990Z,68.75
2022-08-07T10:24:50.043Z,69.04
2022-08-07T10:27:24.395Z,69.04
2022-08-07T10:30:12.189Z,69.16
2022-08-07T10:33:04.617Z,69.24
2022-08-07T10:35:55.982Z,69.31
2022-08-07T10:38:42.132Z,69.41
2022-08-07T10:41:53.169Z,69.24
2022-08-07T10:44:58.957Z,68.69
2022-08-07T10:47:53.241Z,68.39
2022-08-07T10:50:25.949Z,68.59
2022-08-07T10:53:21.532Z,68.46
2022-08-07T10:56:20.965Z,68.58
2022-08-07T10:59:13.615Z,68.65
2022-08-07T11:01:51.979Z,68.40
2022-08-07T11:04:58.576Z,68.46
2022-08-07T11:08:03.492Z,68.55
2022-08-07T11:10:52.391Z,68.64
2022-08-07T11:14:43.826Z,68.49
2022-08-07T11:17:07.124Z,68.71
2022-08-07T11:20:03.352Z,68.68
2022-08-07T11:22:46.009Z,68.43
2022-08-07T11:25:23.260Z,68.61
2022-08-07T11:28:03.138Z,68.63
2022-08-07T11:30:51.034Z,68.58
2022-08-07T11:33:48.755Z,68.06
2022-08-07T11:36:38.802Z,68.42
2022-08-07T11:39:39.820Z,68.49
2022-08-07T11:42:30.478Z,68.71
2022-08-07T11:45:35.387Z,68.70
2022-08-07T11:48:18.294Z,68.75
2022-08-07T11:51:04.291Z,68.59
2022-08-07T11:54:13.095Z,68.39
2022-08-07T11:56:53.178Z,67.95
2022-08-07T12:00:10.896Z,67.10
2022-08-07T12:03:41.457Z,68.08
2022-08-07T12:06:36.878Z,67.06
2022-08-07T12:09:23.357Z,62.31
2022-08-07T12:12:18.254Z,56.42
2022-08-07T12:15:01.165Z,61.43
2022-08-07T12:17:59.397Z,64.01
2022-08-07T12:20:37.660Z,65.34
2022-08-07T12:23:08.978Z,66.22
2022-08-07T12:26:21.483Z,66.06
2022-08-07T12:28:53.136Z,66.45
2022-08-07T12:31:53.237Z,66.72
2022-08-07T12:34:28.407Z,66.65
2022-08-07T12:36:56.353Z,66.78
2022-08-07T12:39:44.847Z,66.88
2022-08-07T12:42:15.139Z,66.49
2022-08-07T12:44:45.733Z,66.75
2022-08-07T12:47:39.713Z,67.29
2022-08-07T12:50:34.268Z,66.36
2022-08-07T12:53:21.950Z,66.78
2022-08-07T12:56:28.468Z,66.69
2022-08-07T12:58:57.192Z,66.69
2022-08-07T13:01:43.273Z,66.17
2022-08-07T13:05:01.090Z,66.14
2022-08-07T13:08:13.539Z,67.22
2022-08-07T13:11:19.442Z,66.82
2022-08-07T13:14:09.473Z,66.30
2022-08-07T13:17:09.276Z,66.08
2022-08-07T13:19:51.600Z,66.15
2022-08-07T13:22:30.154Z,66.68
2022-08-07T13:25:06.008Z,66.69
2022-08-07T13:28:12.552Z,61.28
2022-08-07T13:30:48.991Z,63.67
2022-08-07T13:34:29.942Z,64.67
2022-08-07T13:36:25.843Z,65.15
2022-08-07T13:39:00.316Z,58.13
2022-08-07T13:41:41.887Z,62.85
2022-08-07T13:44:10.642Z,64.74
2022-08-07T13:46:49.712Z,65.90
2022-08-07T13:50:34.065Z,66.44
2022-08-07T13:52:31.640Z,67.39
2022-08-07T13:54:56.621Z,66.79
2022-08-07T13:57:32.192Z,67.94
2022-08-07T14:00:08.367Z,68.32
2022-08-07T14:02:55.881Z,68.47
2022-08-07T14:05:22.815Z,68.86
2022-08-07T14:08:00.960Z,69.06
2022-08-07T14:10:42.473Z,68.87
2022-08-07T14:13:16.390Z,68.92
2022-08-07T14:15:51.305Z,69.02
2022-08-07T14:18:28.818Z,68.84
2022-08-07T14:22:02.345Z,68.94
2022-08-07T14:24:33.632Z,69.13
2022-08-07T14:28:09.507Z,69.00
2022-08-07T14:30:05.623Z,68.53
2022-08-07T14:32:58.410Z,68.69
2022-08-07T14:35:45.023Z,68.87
2022-08-07T14:38:26.578Z,69.07
2022-08-07T14:41:04.885Z,68.91
2022-08-07T14:43:58.740Z,68.88
2022-08-07T14:49:55.844Z,68.76
2022-08-07T14:52:03.929Z,68.40
2022-08-07T14:54:42.238Z,68.32
2022-08-07T15:00:06.274Z,68.45
2022-08-07T15:02:37.063Z,68.47
2022-08-07T15:05:04.671Z,68.21
2022-08-07T15:07:51.805Z,68.19
2022-08-07T15:10:29.700Z,68.15
2022-08-07T15:13:00.732Z,68.32
2022-08-07T15:15:43.329Z,68.30
2022-08-07T15:18:40.231Z,68.09
2022-08-07T15:21:58.512Z,70.74
2022-08-07T15:25:14.523Z,68.67
2022-08-07T15:27:03.231Z,69.12
2022-08-07T15:30:08.530Z,69.26
2022-08-07T15:32:39.545Z,69.29
2022-08-07T15:35:16.800Z,69.29
2022-08-07T15:38:17.812Z,69.41
2022-08-07T15:40:37.702Z,69.51
2022-08-07T15:46:32.204Z,69.89
2022-08-07T15:49:13.209Z,69.80
2022-08-07T15:54:34.087Z,69.09
2022-08-07T15:57:02.348Z,68.81
2022-08-07T15:59:40.053Z,67.44
2022-08-07T16:02:21.629Z,67.51
2022-08-07T16:04:57.166Z,67.07
2022-08-07T16:08:31.124Z,67.21
2022-08-07T16:10:18.290Z,67.30
2022-08-07T16:13:00.958Z,66.77
2022-08-07T16:16:06.483Z,66.76
2022-08-07T16:18:49.707Z,67.55
2022-08-07T16:22:01.211Z,68.16
2022-08-07T16:24:35.576Z,68.45
2022-08-07T16:27:26.976Z,68.45
2022-08-07T16:30:31.149Z,68.49
2022-08-07T16:34:01.991Z,68.36
2022-08-07T16:36:19.775Z,67.78
2022-08-07T16:39:33.646Z,67.48
2022-08-07T16:42:29.964Z,66.39
2022-08-07T16:46:20.978Z,66.59
2022-08-07T16:47:57.613Z,66.90
2022-08-07T16:51:20.894Z,67.17
2022-08-07T16:54:09.746Z,66.75
2022-08-07T16:57:15.238Z,66.93
2022-08-07T17:00:16.828Z,68.29
2022-08-07T17:03:17.437Z,68.78
2022-08-07T17:06:30.446Z,69.23
2022-08-07T17:10:06.684Z,70.16
2022-08-07T17:12:34.292Z,71.65
2022-08-07T17:15:15.733Z,72.12
2022-08-07T17:17:51.504Z,72.16
2022-08-07T17:20:35.737Z,72.43
2022-08-07T17:23:21.968Z,72.37
2022-08-07T17:26:00.274Z,72.22
2022-08-07T17:28:53.808Z,72.30
2022-08-07T17:31:44.272Z,72.20
2022-08-07T17:35:08.912Z,71.95
2022-08-07T17:38:05.831Z,72.22
2022-08-07T17:40:50.686Z,72.22
2022-08-07T17:44:01.698Z,72.29
2022-08-07T17:46:53.866Z,72.05
2022-08-07T17:49:30.123Z,72.03
2022-08-07T17:52:01.450Z,72.16
2022-08-07T17:54:54.605Z,72.06
2022-08-07T17:57:58.838Z,71.89
2022-08-07T18:00:33.353Z,71.84
2022-08-07T18:03:18.567Z,71.82
2022-08-07T18:06:01.605Z,71.81
2022-08-07T18:09:00.286Z,71.77
2022-08-07T18:12:16.032Z,71.71
2022-08-07T18:14:37.655Z,71.43
2022-08-07T18:19:02.628Z,71.22
2022-08-07T18:21:06.439Z,71.19
2022-08-07T18:23:43.760Z,71.22
2022-08-07T18:26:15.241Z,71.07
2022-08-07T18:30:07.390Z,70.97
2022-08-07T18:31:57.045Z,70.92
2022-08-07T18:34:53.369Z,70.84
2022-08-07T18:38:57.158Z,70.78
2022-08-07T18:41:08.061Z,70.77
2022-08-07T18:43:59.474Z,70.81
2022-08-07T18:46:35.589Z,70.86
2022-08-07T18:50:35.354Z,70.81
2022-08-07T18:52:54.485Z,70.79
2022-08-07T18:55:56.024Z,70.81
2022-08-07T18:58:51.616Z,70.84
2022-08-07T19:02:17.989Z,70.87
2022-08-07T19:04:28.111Z,70.93
2022-08-07T19:07:15.671Z,71.20
2022-08-07T19:09:57.432Z,71.51
2022-08-07T19:12:31.768Z,71.80
2022-08-07T19:16:02.909Z,71.95
2022-08-07T19:18:10.637Z,71.93
2022-08-07T19:21:10.052Z,72.33
2022-08-07T19:23:57.401Z,72.47
2022-08-07T19:26:39.620Z,72.77
2022-08-07T19:31:04.382Z,73.09
2022-08-07T19:32:18.587Z,73.26
2022-08-07T19:34:58.613Z,73.37
2022-08-07T19:37:25.802Z,73.22
2022-08-07T19:40:16.098Z,73.26
2022-08-07T19:42:45.101Z,73.15
2022-08-07T19:46:04.874Z,73.12
2022-08-07T19:48:18.622Z,73.34
2022-08-07T19:50:53.515Z,73.41
2022-08-07T19:54:35.148Z,73.51
2022-08-07T19:57:24.934Z,73.45
2022-08-07T19:58:57.458Z,73.57
2022-08-07T20:01:24.834Z,73.57
2022-08-07T20:04:32.163Z,73.51
2022-08-07T20:07:00.244Z,73.48
2022-08-07T20:10:33.780Z,73.21
2022-08-07T20:12:34.475Z,72.96
2022-08-07T20:15:09.550Z,72.86
2022-08-07T20:17:44.588Z,72.89
2022-08-07T20:20:29.680Z,72.94
2022-08-07T20:23:01.691Z,73.00
2022-08-07T20:25:51.084Z,72.94
2022-08-07T20:28:20.072Z,72.87
2022-08-07T20:30:47.055Z,72.80
2022-08-07T20:33:24.242Z,72.82
2022-08-07T20:36:05.997Z,72.74
2022-08-07T20:38:33.581Z,72.79
2022-08-07T20:41:03.912Z,72.71
2022-08-07T20:43:33.552Z,72.74
2022-08-07T20:46:28.340Z,72.60
2022-08-07T20:49:54.450Z,72.67
2022-08-07T20:51:35.598Z,72.68
2022-08-07T20:54:09.446Z,72.67
2022-08-07T20:56:46.025Z,72.48
2022-08-07T21:00:05.065Z,72.46
2022-08-07T21:02:31.503Z,72.22
2022-08-07T21:05:00.236Z,72.13
2022-08-07T21:07:28.782Z,72.01
2022-08-07T21:09:59.278Z,72.00
2022-08-07T21:12:31.127Z,71.95
2022-08-07T21:15:01.321Z,71.87
2022-08-07T21:18:02.817Z,72.09
2022-08-07T21:20:30.303Z,72.16
2022-08-07T21:23:08.516Z,71.63
2022-08-07T21:25:56.698Z,71.48
2022-08-07T21:28:48.074Z,71.50
2022-08-07T21:32:42.785Z,71.43
2022-08-07T21:34:33.591Z,71.77
2022-08-07T21:37:20.637Z,71.95
2022-08-07T21:39:57.149Z,72.06
2022-08-07T21:42:46.715Z,72.32
2022-08-07T21:46:08.751Z,72.45
2022-08-07T21:48:33.592Z,72.62
2022-08-07T21:51:07.248Z,72.72
2022-08-07T21:53:52.651Z,72.77
2022-08-07T21:56:47.838Z,72.80
2022-08-07T22:00:04.029Z,72.77
2022-08-07T22:02:47.782Z,72.82
2022-08-07T22:05:21.651Z,72.47
2022-08-07T22:08:07.889Z,72.45
2022-08-07T22:10:38.471Z,72.33
2022-08-07T22:13:13.897Z,72.06
2022-08-07T22:16:40.103Z,72.05
2022-08-07T22:18:58.093Z,71.96
2022-08-07T22:22:01.858Z,72.11
2022-08-07T22:24:33.372Z,72.13
2022-08-07T22:27:05.798Z,72.06
2022-08-07T22:29:48.121Z,71.91
2022-08-07T22:32:39.038Z,71.87
2022-08-07T22:35:11.081Z,71.90
2022-08-07T22:38:02.907Z,71.35
2022-08-07T22:40:56.856Z,71.54
2022-08-07T22:43:40.465Z,71.67
2022-08-07T22:46:42.763Z,71.66
2022-08-07T22:49:33.874Z,71.47
2022-08-07T22:52:43.478Z,71.32
2022-08-07T22:55:36.648Z,70.96
2022-08-07T22:58:21.652Z,71.10
2022-08-07T23:01:09.708Z,70.88
2022-08-07T23:04:06.269Z,70.68
2022-08-07T23:06:59.079Z,70.43
2022-08-07T23:10:03.810Z,70.53
2022-08-07T23:12:50.540Z,70.31
2022-08-07T23:16:06.956Z,70.31
2022-08-07T23:19:38.988Z,70.19
2022-08-07T23:23:09.806Z,70.32
2022-08-07T23:26:10.204Z,70.32
2022-08-07T23:29:42.669Z,70.45
2022-08-07T23:34:22.386Z,70.57
2022-08-07T23:35:19.775Z,70.64
2022-08-07T23:38:19.055Z,70.52
2022-08-07T23:41:06.509Z,70.40
2022-08-07T23:44:03.705Z,70.34
2022-08-07T23:46:55.840Z,70.35
2022-08-07T23:49:50.117Z,70.40
2022-08-07T23:53:12.052Z,70.49
2022-08-07T23:55:55.899Z,70.41
2022-08-07T23:58:36.301Z,70.44
